sensor_id;sensor_type;location;lat;lon;timestamp;P1;durP1;ratioP1;P2;durP2;ratioP2
9821;SDS011;4950;46.042;14.472;2023-02-15T00:01:44;53.23;;;29.17;;
9821;SDS011;4950;46.042;14.472;2023-02-15T00:04:12;55.70;;;29.83;;
9821;SDS011;4950;46.042;14.472;2023-02-15T00:06:40;52.27;;;29.97;;
9821;SDS011;4950;46.042;14.472;2023-02-15T00:09:07;58.23;;;32.67;;
9821;SDS011;4950;46.042;14.472;2023-02-15T00:11:34;53.73;;;30.17;;
9821;SDS011;4950;46.042;14.472;2023-02-15T00:14:09;52.90;;;29.97;;
9821;SDS011;4950;46.042;14.472;2023-02-15T00:16:38;59.20;;;30.13;;
9821;SDS011;4950;46.042;14.472;2023-02-15T00:19:05;48.03;;;28.40;;
9821;SDS011;4950;46.042;14.472;2023-02-15T00:21:33;50.13;;;28.00;;
9821;SDS011;4950;46.042;14.472;2023-02-15T00:24:01;46.27;;;26.47;;
9821;SDS011;4950;46.042;14.472;2023-02-15T00:26:29;49.27;;;27.10;;
9821;SDS011;4950;46.042;14.472;2023-02-15T00:28:56;54.87;;;28.20;;
9821;SDS011;4950;46.042;14.472;2023-02-15T00:31:26;46.13;;;26.03;;
9821;SDS011;4950;46.042;14.472;2023-02-15T00:33:53;47.83;;;27.77;;
9821;SDS011;4950;46.042;14.472;2023-02-15T00:36:20;45.43;;;26.77;;
9821;SDS011;4950;46.042;14.472;2023-02-15T00:38:46;45.03;;;26.13;;
9821;SDS011;4950;46.042;14.472;2023-02-15T00:41:13;45.53;;;26.07;;
9821;SDS011;4950;46.042;14.472;2023-02-15T00:43:40;43.63;;;25.90;;
9821;SDS011;4950;46.042;14.472;2023-02-15T00:46:06;44.67;;;26.23;;
9821;SDS011;4950;46.042;14.472;2023-02-15T00:48:34;46.03;;;26.73;;
9821;SDS011;4950;46.042;14.472;2023-02-15T00:51:01;46.80;;;26.83;;
9821;SDS011;4950;46.042;14.472;2023-02-15T00:53:28;45.77;;;26.70;;
9821;SDS011;4950;46.042;14.472;2023-02-15T00:55:56;49.10;;;26.93;;
9821;SDS011;4950;46.042;14.472;2023-02-15T00:58:23;47.40;;;27.57;;
9821;SDS011;4950;46.042;14.472;2023-02-15T01:00:50;41.93;;;24.67;;
9821;SDS011;4950;46.042;14.472;2023-02-15T01:03:18;45.87;;;26.67;;
9821;SDS011;4950;46.042;14.472;2023-02-15T01:05:48;49.33;;;28.13;;
9821;SDS011;4950;46.042;14.472;2023-02-15T01:08:15;43.80;;;25.00;;
9821;SDS011;4950;46.042;14.472;2023-02-15T01:10:42;41.80;;;25.47;;
9821;SDS011;4950;46.042;14.472;2023-02-15T01:13:12;47.07;;;26.93;;
9821;SDS011;4950;46.042;14.472;2023-02-15T01:15:39;47.07;;;26.93;;
9821;SDS011;4950;46.042;14.472;2023-02-15T01:18:06;58.87;;;28.30;;
9821;SDS011;4950;46.042;14.472;2023-02-15T01:20:34;50.07;;;27.13;;
9821;SDS011;4950;46.042;14.472;2023-02-15T01:23:05;51.80;;;27.90;;
9821;SDS011;4950;46.042;14.472;2023-02-15T01:25:32;46.40;;;26.17;;
9821;SDS011;4950;46.042;14.472;2023-02-15T01:28:00;48.27;;;26.47;;
9821;SDS011;4950;46.042;14.472;2023-02-15T01:30:27;50.40;;;28.83;;
9821;SDS011;4950;46.042;14.472;2023-02-15T01:32:54;48.03;;;27.77;;
9821;SDS011;4950;46.042;14.472;2023-02-15T01:35:20;46.90;;;27.50;;
9821;SDS011;4950;46.042;14.472;2023-02-15T01:37:47;48.90;;;27.97;;
9821;SDS011;4950;46.042;14.472;2023-02-15T01:40:16;45.93;;;26.77;;
9821;SDS011;4950;46.042;14.472;2023-02-15T01:42:44;47.70;;;27.67;;
9821;SDS011;4950;46.042;14.472;2023-02-15T01:45:16;53.60;;;28.20;;
9821;SDS011;4950;46.042;14.472;2023-02-15T01:47:47;43.97;;;26.30;;
9821;SDS011;4950;46.042;14.472;2023-02-15T01:50:20;49.87;;;27.70;;
9821;SDS011;4950;46.042;14.472;2023-02-15T01:52:51;51.33;;;28.10;;
9821;SDS011;4950;46.042;14.472;2023-02-15T01:55:23;49.73;;;27.23;;
9821;SDS011;4950;46.042;14.472;2023-02-15T01:57:53;51.67;;;28.37;;
9821;SDS011;4950;46.042;14.472;2023-02-15T02:00:20;47.43;;;26.77;;
9821;SDS011;4950;46.042;14.472;2023-02-15T02:02:48;51.77;;;27.43;;
9821;SDS011;4950;46.042;14.472;2023-02-15T02:05:19;51.33;;;28.43;;
9821;SDS011;4950;46.042;14.472;2023-02-15T02:07:46;44.20;;;26.37;;
9821;SDS011;4950;46.042;14.472;2023-02-15T02:10:18;48.00;;;26.40;;
9821;SDS011;4950;46.042;14.472;2023-02-15T02:12:49;50.13;;;28.03;;
9821;SDS011;4950;46.042;14.472;2023-02-15T02:15:19;51.67;;;27.53;;
9821;SDS011;4950;46.042;14.472;2023-02-15T02:17:54;49.20;;;27.97;;
9821;SDS011;4950;46.042;14.472;2023-02-15T02:20:38;50.10;;;26.60;;
9821;SDS011;4950;46.042;14.472;2023-02-15T02:23:21;91.70;;;42.83;;
9821;SDS011;4950;46.042;14.472;2023-02-15T02:25:59;81.67;;;40.60;;
9821;SDS011;4950;46.042;14.472;2023-02-15T02:35:13;91.60;;;42.40;;
9821;SDS011;4950;46.042;14.472;2023-02-15T02:37:46;124.03;;;51.33;;
9821;SDS011;4950;46.042;14.472;2023-02-15T02:40:20;126.63;;;51.70;;
9821;SDS011;4950;46.042;14.472;2023-02-15T02:42:55;121.70;;;52.30;;
9821;SDS011;4950;46.042;14.472;2023-02-15T02:45:28;126.70;;;52.17;;
9821;SDS011;4950;46.042;14.472;2023-02-15T02:48:03;123.27;;;51.60;;
9821;SDS011;4950;46.042;14.472;2023-02-15T02:50:38;136.30;;;55.87;;
9821;SDS011;4950;46.042;14.472;2023-02-15T02:53:06;134.57;;;55.57;;
9821;SDS011;4950;46.042;14.472;2023-02-15T02:55:33;116.83;;;50.63;;
9821;SDS011;4950;46.042;14.472;2023-02-15T02:58:05;113.03;;;48.10;;
9821;SDS011;4950;46.042;14.472;2023-02-15T03:00:37;113.30;;;46.10;;
9821;SDS011;4950;46.042;14.472;2023-02-15T03:03:08;104.10;;;47.57;;
9821;SDS011;4950;46.042;14.472;2023-02-15T03:05:41;97.93;;;44.83;;
9821;SDS011;4950;46.042;14.472;2023-02-15T03:08:13;97.27;;;45.47;;
9821;SDS011;4950;46.042;14.472;2023-02-15T03:10:47;98.53;;;44.50;;
9821;SDS011;4950;46.042;14.472;2023-02-15T03:13:15;82.77;;;42.50;;
9821;SDS011;4950;46.042;14.472;2023-02-15T03:15:42;75.97;;;39.87;;
9821;SDS011;4950;46.042;14.472;2023-02-15T03:18:30;72.73;;;37.40;;
9821;SDS011;4950;46.042;14.472;2023-02-15T03:21:04;72.40;;;35.90;;
9821;SDS011;4950;46.042;14.472;2023-02-15T03:23:34;64.87;;;33.20;;
9821;SDS011;4950;46.042;14.472;2023-02-15T03:26:03;64.35;;;33.15;;
9821;SDS011;4950;46.042;14.472;2023-02-15T03:28:33;59.30;;;32.05;;
9821;SDS011;4950;46.042;14.472;2023-02-15T03:31:02;54.97;;;29.87;;
9821;SDS011;4950;46.042;14.472;2023-02-15T03:33:32;52.77;;;29.27;;
9821;SDS011;4950;46.042;14.472;2023-02-15T03:36:04;52.22;;;26.70;;
9821;SDS011;4950;46.042;14.472;2023-02-15T03:38:36;63.20;;;30.57;;
9821;SDS011;4950;46.042;14.472;2023-02-15T03:41:09;56.03;;;28.40;;
9821;SDS011;4950;46.042;14.472;2023-02-15T03:43:39;51.30;;;27.10;;
9821;SDS011;4950;46.042;14.472;2023-02-15T03:46:12;48.10;;;26.80;;
9821;SDS011;4950;46.042;14.472;2023-02-15T03:48:46;54.00;;;27.03;;
9821;SDS011;4950;46.042;14.472;2023-02-15T03:51:20;56.00;;;27.23;;
9821;SDS011;4950;46.042;14.472;2023-02-15T03:54:04;55.63;;;28.27;;
9821;SDS011;4950;46.042;14.472;2023-02-15T03:56:33;61.07;;;31.10;;
9821;SDS011;4950;46.042;14.472;2023-02-15T03:59:02;62.10;;;28.67;;
9821;SDS011;4950;46.042;14.472;2023-02-15T04:01:48;66.47;;;30.13;;
9821;SDS011;4950;46.042;14.472;2023-02-15T04:04:33;74.47;;;31.10;;
9821;SDS011;4950;46.042;14.472;2023-02-15T04:07:03;51.20;;;25.37;;
9821;SDS011;4950;46.042;14.472;2023-02-15T04:09:31;51.57;;;26.30;;
9821;SDS011;4950;46.042;14.472;2023-02-15T04:12:15;46.63;;;25.00;;
9821;SDS011;4950;46.042;14.472;2023-02-15T04:14:41;45.23;;;22.80;;
9821;SDS011;4950;46.042;14.472;2023-02-15T04:17:26;42.93;;;24.07;;
9821;SDS011;4950;46.042;14.472;2023-02-15T04:19:53;44.70;;;23.50;;
9821;SDS011;4950;46.042;14.472;2023-02-15T04:22:38;48.50;;;24.27;;
9821;SDS011;4950;46.042;14.472;2023-02-15T04:25:23;44.33;;;24.20;;
9821;SDS011;4950;46.042;14.472;2023-02-15T04:27:50;48.57;;;25.83;;
9821;SDS011;4950;46.042;14.472;2023-02-15T04:30:18;38.17;;;22.27;;
9821;SDS011;4950;46.042;14.472;2023-02-15T04:32:46;43.13;;;22.10;;
9821;SDS011;4950;46.042;14.472;2023-02-15T04:35:14;48.13;;;24.00;;
9821;SDS011;4950;46.042;14.472;2023-02-15T04:37:42;47.13;;;26.93;;
9821;SDS011;4950;46.042;14.472;2023-02-15T04:40:10;50.90;;;28.53;;
9821;SDS011;4950;46.042;14.472;2023-02-15T04:42:38;57.63;;;28.90;;
9821;SDS011;4950;46.042;14.472;2023-02-15T04:45:05;55.17;;;29.43;;
9821;SDS011;4950;46.042;14.472;2023-02-15T04:47:33;48.83;;;28.83;;
9821;SDS011;4950;46.042;14.472;2023-02-15T04:49:59;49.67;;;27.13;;
9821;SDS011;4950;46.042;14.472;2023-02-15T04:52:26;46.97;;;28.67;;
9821;SDS011;4950;46.042;14.472;2023-02-15T04:54:54;51.30;;;27.70;;
9821;SDS011;4950;46.042;14.472;2023-02-15T04:57:21;46.00;;;27.47;;
9821;SDS011;4950;46.042;14.472;2023-02-15T04:59:49;50.57;;;26.70;;
9821;SDS011;4950;46.042;14.472;2023-02-15T05:02:16;45.30;;;27.63;;
9821;SDS011;4950;46.042;14.472;2023-02-15T05:04:42;51.83;;;27.87;;
9821;SDS011;4950;46.042;14.472;2023-02-15T05:07:09;56.30;;;28.90;;
9821;SDS011;4950;46.042;14.472;2023-02-15T05:09:36;50.80;;;29.90;;
9821;SDS011;4950;46.042;14.472;2023-02-15T05:12:04;55.17;;;30.50;;
9821;SDS011;4950;46.042;14.472;2023-02-15T05:14:31;57.67;;;31.47;;
9821;SDS011;4950;46.042;14.472;2023-02-15T05:16:58;59.47;;;30.67;;
9821;SDS011;4950;46.042;14.472;2023-02-15T05:19:26;57.53;;;30.50;;
9821;SDS011;4950;46.042;14.472;2023-02-15T05:21:53;65.10;;;31.20;;
9821;SDS011;4950;46.042;14.472;2023-02-15T05:24:20;60.20;;;31.93;;
9821;SDS011;4950;46.042;14.472;2023-02-15T05:27:05;62.07;;;32.37;;
9821;SDS011;4950;46.042;14.472;2023-02-15T05:29:49;65.00;;;33.83;;
9821;SDS011;4950;46.042;14.472;2023-02-15T05:32:16;70.80;;;34.90;;
9821;SDS011;4950;46.042;14.472;2023-02-15T05:34:43;63.00;;;32.87;;
9821;SDS011;4950;46.042;14.472;2023-02-15T05:37:09;68.10;;;33.30;;
9821;SDS011;4950;46.042;14.472;2023-02-15T05:39:36;71.37;;;35.33;;
9821;SDS011;4950;46.042;14.472;2023-02-15T05:42:04;80.17;;;36.10;;
9821;SDS011;4950;46.042;14.472;2023-02-15T05:44:32;76.37;;;35.33;;
9821;SDS011;4950;46.042;14.472;2023-02-15T05:46:58;70.47;;;33.40;;
9821;SDS011;4950;46.042;14.472;2023-02-15T05:49:25;78.80;;;34.03;;
9821;SDS011;4950;46.042;14.472;2023-02-15T05:51:51;72.80;;;34.70;;
9821;SDS011;4950;46.042;14.472;2023-02-15T05:54:18;68.37;;;32.60;;
9821;SDS011;4950;46.042;14.472;2023-02-15T05:56:45;70.33;;;36.20;;
9821;SDS011;4950;46.042;14.472;2023-02-15T05:59:13;72.97;;;37.07;;
9821;SDS011;4950;46.042;14.472;2023-02-15T06:01:40;77.80;;;39.60;;
9821;SDS011;4950;46.042;14.472;2023-02-15T06:04:06;68.13;;;35.90;;
9821;SDS011;4950;46.042;14.472;2023-02-15T06:06:33;76.70;;;38.17;;
9821;SDS011;4950;46.042;14.472;2023-02-15T06:09:00;69.13;;;34.50;;
9821;SDS011;4950;46.042;14.472;2023-02-15T06:11:27;70.50;;;35.40;;
9821;SDS011;4950;46.042;14.472;2023-02-15T06:13:53;76.07;;;34.67;;
9821;SDS011;4950;46.042;14.472;2023-02-15T06:16:21;66.17;;;33.87;;
9821;SDS011;4950;46.042;14.472;2023-02-15T06:18:48;64.43;;;32.50;;
9821;SDS011;4950;46.042;14.472;2023-02-15T06:21:15;63.47;;;33.27;;
9821;SDS011;4950;46.042;14.472;2023-02-15T06:23:42;64.63;;;32.20;;
9821;SDS011;4950;46.042;14.472;2023-02-15T06:26:08;69.60;;;34.17;;
9821;SDS011;4950;46.042;14.472;2023-02-15T06:28:35;68.33;;;34.70;;
9821;SDS011;4950;46.042;14.472;2023-02-15T06:31:03;56.63;;;31.83;;
9821;SDS011;4950;46.042;14.472;2023-02-15T06:33:31;72.63;;;33.13;;
9821;SDS011;4950;46.042;14.472;2023-02-15T06:35:59;74.60;;;35.10;;
9821;SDS011;4950;46.042;14.472;2023-02-15T06:38:26;69.17;;;35.47;;
9821;SDS011;4950;46.042;14.472;2023-02-15T06:40:53;68.97;;;34.43;;
9821;SDS011;4950;46.042;14.472;2023-02-15T06:43:20;62.13;;;36.07;;
9821;SDS011;4950;46.042;14.472;2023-02-15T06:45:47;70.80;;;35.00;;
9821;SDS011;4950;46.042;14.472;2023-02-15T06:48:14;70.00;;;34.93;;
9821;SDS011;4950;46.042;14.472;2023-02-15T06:50:42;65.33;;;36.03;;
9821;SDS011;4950;46.042;14.472;2023-02-15T06:53:08;72.13;;;32.57;;
9821;SDS011;4950;46.042;14.472;2023-02-15T06:55:35;65.50;;;34.17;;
9821;SDS011;4950;46.042;14.472;2023-02-15T06:58:02;62.23;;;33.87;;
9821;SDS011;4950;46.042;14.472;2023-02-15T07:00:29;64.83;;;33.87;;
9821;SDS011;4950;46.042;14.472;2023-02-15T07:02:55;68.50;;;35.77;;
9821;SDS011;4950;46.042;14.472;2023-02-15T07:05:23;71.07;;;36.60;;
9821;SDS011;4950;46.042;14.472;2023-02-15T07:07:56;62.07;;;31.87;;
9821;SDS011;4950;46.042;14.472;2023-02-15T07:10:23;65.50;;;34.13;;
9821;SDS011;4950;46.042;14.472;2023-02-15T07:12:50;83.87;;;39.60;;
9821;SDS011;4950;46.042;14.472;2023-02-15T07:15:17;79.23;;;37.93;;
9821;SDS011;4950;46.042;14.472;2023-02-15T07:17:46;75.00;;;35.50;;
9821;SDS011;4950;46.042;14.472;2023-02-15T07:20:14;81.50;;;38.40;;
9821;SDS011;4950;46.042;14.472;2023-02-15T07:22:42;85.47;;;38.80;;
9821;SDS011;4950;46.042;14.472;2023-02-15T07:25:11;92.67;;;41.73;;
9821;SDS011;4950;46.042;14.472;2023-02-15T07:27:38;81.95;;;41.05;;
9821;SDS011;4950;46.042;14.472;2023-02-15T07:30:06;90.00;;;43.57;;
9821;SDS011;4950;46.042;14.472;2023-02-15T07:32:34;100.87;;;43.43;;
9821;SDS011;4950;46.042;14.472;2023-02-15T07:35:01;89.00;;;42.90;;
9821;SDS011;4950;46.042;14.472;2023-02-15T07:37:27;75.67;;;38.53;;
9821;SDS011;4950;46.042;14.472;2023-02-15T07:39:54;97.67;;;44.50;;
9821;SDS011;4950;46.042;14.472;2023-02-15T07:42:23;104.10;;;42.87;;
9821;SDS011;4950;46.042;14.472;2023-02-15T07:44:49;74.93;;;37.53;;
9821;SDS011;4950;46.042;14.472;2023-02-15T07:47:17;85.13;;;41.13;;
9821;SDS011;4950;46.042;14.472;2023-02-15T07:49:44;81.47;;;39.53;;
9821;SDS011;4950;46.042;14.472;2023-02-15T07:52:10;87.00;;;41.97;;
9821;SDS011;4950;46.042;14.472;2023-02-15T07:54:37;80.03;;;41.53;;
9821;SDS011;4950;46.042;14.472;2023-02-15T07:57:04;80.07;;;39.80;;
9821;SDS011;4950;46.042;14.472;2023-02-15T07:59:32;79.30;;;40.13;;
9821;SDS011;4950;46.042;14.472;2023-02-15T08:01:58;79.57;;;39.13;;
9821;SDS011;4950;46.042;14.472;2023-02-15T08:04:25;80.33;;;40.70;;
9821;SDS011;4950;46.042;14.472;2023-02-15T08:06:52;69.83;;;36.37;;
9821;SDS011;4950;46.042;14.472;2023-02-15T08:09:20;77.47;;;38.17;;
9821;SDS011;4950;46.042;14.472;2023-02-15T08:11:47;62.27;;;33.00;;
9821;SDS011;4950;46.042;14.472;2023-02-15T08:14:14;75.20;;;34.13;;
9821;SDS011;4950;46.042;14.472;2023-02-15T08:16:44;92.13;;;36.77;;
9821;SDS011;4950;46.042;14.472;2023-02-15T08:19:13;75.53;;;35.50;;
9821;SDS011;4950;46.042;14.472;2023-02-15T08:21:41;70.72;;;36.42;;
9821;SDS011;4950;46.042;14.472;2023-02-15T08:24:09;84.10;;;38.23;;
9821;SDS011;4950;46.042;14.472;2023-02-15T08:26:37;88.50;;;39.13;;
9821;SDS011;4950;46.042;14.472;2023-02-15T08:29:05;80.67;;;38.50;;
9821;SDS011;4950;46.042;14.472;2023-02-15T08:31:33;78.03;;;38.57;;
9821;SDS011;4950;46.042;14.472;2023-02-15T08:34:03;95.18;;;39.53;;
9821;SDS011;4950;46.042;14.472;2023-02-15T08:36:31;81.07;;;37.60;;
9821;SDS011;4950;46.042;14.472;2023-02-15T08:38:58;75.83;;;38.27;;
9821;SDS011;4950;46.042;14.472;2023-02-15T08:41:27;92.53;;;42.17;;
9821;SDS011;4950;46.042;14.472;2023-02-15T08:43:56;122.37;;;46.00;;
9821;SDS011;4950;46.042;14.472;2023-02-15T08:46:25;106.53;;;47.67;;
9821;SDS011;4950;46.042;14.472;2023-02-15T08:48:53;103.15;;;44.17;;
9821;SDS011;4950;46.042;14.472;2023-02-15T08:51:23;94.77;;;43.33;;
9821;SDS011;4950;46.042;14.472;2023-02-15T08:53:52;89.57;;;40.60;;
9821;SDS011;4950;46.042;14.472;2023-02-15T08:56:22;89.80;;;41.63;;
9821;SDS011;4950;46.042;14.472;2023-02-15T08:58:50;116.53;;;48.53;;
9821;SDS011;4950;46.042;14.472;2023-02-15T09:01:18;120.43;;;47.40;;
9821;SDS011;4950;46.042;14.472;2023-02-15T09:03:46;106.47;;;43.70;;
9821;SDS011;4950;46.042;14.472;2023-02-15T09:06:16;100.30;;;43.20;;
9821;SDS011;4950;46.042;14.472;2023-02-15T09:08:44;105.07;;;42.63;;
9821;SDS011;4950;46.042;14.472;2023-02-15T09:11:12;96.77;;;41.53;;
9821;SDS011;4950;46.042;14.472;2023-02-15T09:13:41;83.97;;;39.17;;
9821;SDS011;4950;46.042;14.472;2023-02-15T09:16:09;85.83;;;36.87;;
9821;SDS011;4950;46.042;14.472;2023-02-15T09:18:38;77.27;;;35.77;;
9821;SDS011;4950;46.042;14.472;2023-02-15T09:21:06;81.67;;;37.63;;
9821;SDS011;4950;46.042;14.472;2023-02-15T09:23:34;84.53;;;37.58;;
9821;SDS011;4950;46.042;14.472;2023-02-15T09:26:03;87.53;;;38.03;;
9821;SDS011;4950;46.042;14.472;2023-02-15T09:28:34;88.47;;;40.77;;
9821;SDS011;4950;46.042;14.472;2023-02-15T09:31:05;83.43;;;37.87;;
9821;SDS011;4950;46.042;14.472;2023-02-15T09:33:33;82.33;;;36.47;;
9821;SDS011;4950;46.042;14.472;2023-02-15T09:36:01;69.07;;;33.67;;
9821;SDS011;4950;46.042;14.472;2023-02-15T09:38:27;76.63;;;36.87;;
9821;SDS011;4950;46.042;14.472;2023-02-15T09:40:57;77.07;;;34.93;;
9821;SDS011;4950;46.042;14.472;2023-02-15T09:43:38;80.40;;;35.47;;
9821;SDS011;4950;46.042;14.472;2023-02-15T09:46:24;85.00;;;37.77;;
9821;SDS011;4950;46.042;14.472;2023-02-15T09:48:59;85.53;;;38.77;;
9821;SDS011;4950;46.042;14.472;2023-02-15T09:51:38;72.70;;;36.77;;
9821;SDS011;4950;46.042;14.472;2023-02-15T09:54:29;73.43;;;35.93;;
9821;SDS011;4950;46.042;14.472;2023-02-15T09:57:08;87.47;;;38.73;;
9821;SDS011;4950;46.042;14.472;2023-02-15T09:59:41;74.90;;;37.37;;
9821;SDS011;4950;46.042;14.472;2023-02-15T10:04:57;80.37;;;37.97;;
9821;SDS011;4950;46.042;14.472;2023-02-15T10:07:44;68.70;;;34.60;;
9821;SDS011;4950;46.042;14.472;2023-02-15T10:10:23;71.60;;;35.60;;
9821;SDS011;4950;46.042;14.472;2023-02-15T10:13:02;67.43;;;34.30;;
9821;SDS011;4950;46.042;14.472;2023-02-15T10:15:46;77.33;;;37.53;;
9821;SDS011;4950;46.042;14.472;2023-02-15T10:18:32;62.23;;;32.90;;
9821;SDS011;4950;46.042;14.472;2023-02-15T10:21:15;68.70;;;33.97;;
9821;SDS011;4950;46.042;14.472;2023-02-15T10:23:56;64.88;;;33.35;;
9821;SDS011;4950;46.042;14.472;2023-02-15T10:26:41;75.33;;;36.23;;
9821;SDS011;4950;46.042;14.472;2023-02-15T10:29:12;66.13;;;32.50;;
9821;SDS011;4950;46.042;14.472;2023-02-15T10:31:49;74.80;;;34.85;;
9821;SDS011;4950;46.042;14.472;2023-02-15T10:34:18;66.82;;;34.28;;
9821;SDS011;4950;46.042;14.472;2023-02-15T10:36:50;72.43;;;36.77;;
9821;SDS011;4950;46.042;14.472;2023-02-15T10:39:39;77.93;;;38.63;;
9821;SDS011;4950;46.042;14.472;2023-02-15T10:42:15;77.20;;;37.30;;
9821;SDS011;4950;46.042;14.472;2023-02-15T10:44:55;77.73;;;38.87;;
9821;SDS011;4950;46.042;14.472;2023-02-15T10:47:37;79.47;;;36.87;;
9821;SDS011;4950;46.042;14.472;2023-02-15T10:50:20;70.30;;;35.43;;
9821;SDS011;4950;46.042;14.472;2023-02-15T10:53:13;65.20;;;33.83;;
9821;SDS011;4950;46.042;14.472;2023-02-15T10:55:52;71.57;;;34.57;;
9821;SDS011;4950;46.042;14.472;2023-02-15T10:58:31;75.47;;;37.43;;
9821;SDS011;4950;46.042;14.472;2023-02-15T11:01:12;78.60;;;36.03;;
9821;SDS011;4950;46.042;14.472;2023-02-15T11:03:54;75.53;;;36.53;;
9821;SDS011;4950;46.042;14.472;2023-02-15T11:06:34;72.00;;;37.23;;
9821;SDS011;4950;46.042;14.472;2023-02-15T11:09:05;83.30;;;39.40;;
9821;SDS011;4950;46.042;14.472;2023-02-15T11:11:38;71.00;;;37.33;;
9821;SDS011;4950;46.042;14.472;2023-02-15T11:14:10;75.63;;;37.85;;
9821;SDS011;4950;46.042;14.472;2023-02-15T11:16:43;78.77;;;39.27;;
9821;SDS011;4950;46.042;14.472;2023-02-15T11:19:12;83.83;;;42.33;;
9821;SDS011;4950;46.042;14.472;2023-02-15T11:21:44;84.70;;;41.20;;
9821;SDS011;4950;46.042;14.472;2023-02-15T11:24:15;74.53;;;39.53;;
9821;SDS011;4950;46.042;14.472;2023-02-15T11:26:45;77.40;;;39.80;;
9821;SDS011;4950;46.042;14.472;2023-02-15T11:29:18;77.40;;;37.73;;
9821;SDS011;4950;46.042;14.472;2023-02-15T11:31:53;71.60;;;39.17;;
9821;SDS011;4950;46.042;14.472;2023-02-15T11:34:24;80.63;;;39.77;;
9821;SDS011;4950;46.042;14.472;2023-02-15T11:36:58;77.60;;;38.87;;
9821;SDS011;4950;46.042;14.472;2023-02-15T11:39:29;70.60;;;36.75;;
9821;SDS011;4950;46.042;14.472;2023-02-15T11:41:59;76.13;;;38.83;;
9821;SDS011;4950;46.042;14.472;2023-02-15T11:44:31;81.90;;;39.15;;
9821;SDS011;4950;46.042;14.472;2023-02-15T11:47:03;94.95;;;40.42;;
9821;SDS011;4950;46.042;14.472;2023-02-15T11:49:34;85.30;;;40.45;;
9821;SDS011;4950;46.042;14.472;2023-02-15T11:52:04;85.78;;;38.80;;
9821;SDS011;4950;46.042;14.472;2023-02-15T11:54:33;82.03;;;39.03;;
9821;SDS011;4950;46.042;14.472;2023-02-15T11:57:03;70.10;;;38.67;;
9821;SDS011;4950;46.042;14.472;2023-02-15T11:59:38;71.97;;;35.88;;
9821;SDS011;4950;46.042;14.472;2023-02-15T12:02:15;71.68;;;38.10;;
9821;SDS011;4950;46.042;14.472;2023-02-15T12:04:46;72.63;;;37.33;;
9821;SDS011;4950;46.042;14.472;2023-02-15T12:07:18;73.50;;;39.35;;
9821;SDS011;4950;46.042;14.472;2023-02-15T12:09:51;80.15;;;40.72;;
9821;SDS011;4950;46.042;14.472;2023-02-15T12:12:23;71.95;;;38.50;;
9821;SDS011;4950;46.042;14.472;2023-02-15T12:14:52;73.10;;;37.40;;
9821;SDS011;4950;46.042;14.472;2023-02-15T12:17:22;76.90;;;36.13;;
9821;SDS011;4950;46.042;14.472;2023-02-15T12:19:52;63.85;;;36.63;;
9821;SDS011;4950;46.042;14.472;2023-02-15T12:22:22;70.00;;;37.47;;
9821;SDS011;4950;46.042;14.472;2023-02-15T12:24:51;63.35;;;36.38;;
9821;SDS011;4950;46.042;14.472;2023-02-15T12:27:21;64.75;;;35.50;;
9821;SDS011;4950;46.042;14.472;2023-02-15T12:29:52;61.67;;;35.05;;
9821;SDS011;4950;46.042;14.472;2023-02-15T12:32:24;66.57;;;34.00;;
9821;SDS011;4950;46.042;14.472;2023-02-15T12:34:54;62.10;;;31.83;;
9821;SDS011;4950;46.042;14.472;2023-02-15T12:37:26;54.95;;;31.83;;
9821;SDS011;4950;46.042;14.472;2023-02-15T12:39:58;50.13;;;31.15;;
9821;SDS011;4950;46.042;14.472;2023-02-15T12:42:26;50.58;;;30.88;;
9821;SDS011;4950;46.042;14.472;2023-02-15T12:44:58;48.57;;;28.77;;
9821;SDS011;4950;46.042;14.472;2023-02-15T12:47:28;47.72;;;26.48;;
9821;SDS011;4950;46.042;14.472;2023-02-15T12:50:06;52.33;;;28.30;;
9821;SDS011;4950;46.042;14.472;2023-02-15T12:52:43;51.67;;;27.92;;
9821;SDS011;4950;46.042;14.472;2023-02-15T12:57:45;45.65;;;26.92;;
9821;SDS011;4950;46.042;14.472;2023-02-15T13:00:25;47.08;;;27.48;;
9821;SDS011;4950;46.042;14.472;2023-02-15T13:02:55;45.13;;;23.98;;
9821;SDS011;4950;46.042;14.472;2023-02-15T13:05:25;37.65;;;23.10;;
9821;SDS011;4950;46.042;14.472;2023-02-15T13:07:58;43.70;;;22.85;;
9821;SDS011;4950;46.042;14.472;2023-02-15T13:10:28;38.78;;;21.95;;
9821;SDS011;4950;46.042;14.472;2023-02-15T13:15:25;37.88;;;23.10;;
9821;SDS011;4950;46.042;14.472;2023-02-15T13:17:56;39.38;;;23.27;;
9821;SDS011;4950;46.042;14.472;2023-02-15T13:20:23;29.67;;;19.30;;
9821;SDS011;4950;46.042;14.472;2023-02-15T13:22:53;37.05;;;20.73;;
9821;SDS011;4950;46.042;14.472;2023-02-15T13:25:25;35.15;;;21.70;;
9821;SDS011;4950;46.042;14.472;2023-02-15T13:27:55;33.72;;;21.27;;
9821;SDS011;4950;46.042;14.472;2023-02-15T13:30:27;35.42;;;23.05;;
9821;SDS011;4950;46.042;14.472;2023-02-15T13:33:00;36.70;;;21.85;;
9821;SDS011;4950;46.042;14.472;2023-02-15T13:35:33;32.78;;;22.00;;
9821;SDS011;4950;46.042;14.472;2023-02-15T13:41:25;37.33;;;22.85;;
9821;SDS011;4950;46.042;14.472;2023-02-15T13:43:58;39.30;;;21.83;;
9821;SDS011;4950;46.042;14.472;2023-02-15T13:46:38;36.78;;;21.67;;
9821;SDS011;4950;46.042;14.472;2023-02-15T13:49:21;33.33;;;20.00;;
9821;SDS011;4950;46.042;14.472;2023-02-15T13:52:01;34.05;;;21.83;;
9821;SDS011;4950;46.042;14.472;2023-02-15T13:57:57;29.58;;;19.08;;
9821;SDS011;4950;46.042;14.472;2023-02-15T14:00:36;32.60;;;19.98;;
9821;SDS011;4950;46.042;14.472;2023-02-15T14:03:25;37.63;;;21.35;;
9821;SDS011;4950;46.042;14.472;2023-02-15T14:06:16;35.63;;;19.77;;
9821;SDS011;4950;46.042;14.472;2023-02-15T14:09:02;37.00;;;21.27;;
9821;SDS011;4950;46.042;14.472;2023-02-15T14:11:44;32.67;;;19.38;;
9821;SDS011;4950;46.042;14.472;2023-02-15T14:17:20;31.35;;;19.65;;
9821;SDS011;4950;46.042;14.472;2023-02-15T14:19:56;34.22;;;20.00;;
9821;SDS011;4950;46.042;14.472;2023-02-15T14:22:30;29.77;;;20.30;;
9821;SDS011;4950;46.042;14.472;2023-02-15T14:25:05;32.05;;;18.83;;
9821;SDS011;4950;46.042;14.472;2023-02-15T14:27:47;32.92;;;20.52;;
9821;SDS011;4950;46.042;14.472;2023-02-15T14:30:30;29.33;;;18.42;;
9821;SDS011;4950;46.042;14.472;2023-02-15T14:33:01;32.75;;;19.23;;
9821;SDS011;4950;46.042;14.472;2023-02-15T14:35:33;30.27;;;18.92;;
9821;SDS011;4950;46.042;14.472;2023-02-15T14:38:04;27.27;;;18.07;;
9821;SDS011;4950;46.042;14.472;2023-02-15T14:40:42;30.52;;;19.15;;
9821;SDS011;4950;46.042;14.472;2023-02-15T14:43:29;29.35;;;19.08;;
9821;SDS011;4950;46.042;14.472;2023-02-15T14:46:10;29.63;;;18.30;;
9821;SDS011;4950;46.042;14.472;2023-02-15T14:48:50;26.80;;;18.17;;
9821;SDS011;4950;46.042;14.472;2023-02-15T14:57:23;35.07;;;18.27;;
9821;SDS011;4950;46.042;14.472;2023-02-15T14:59:53;33.95;;;18.23;;
9821;SDS011;4950;46.042;14.472;2023-02-15T15:02:23;28.85;;;18.00;;
9821;SDS011;4950;46.042;14.472;2023-02-15T15:04:56;33.05;;;17.42;;
9821;SDS011;4950;46.042;14.472;2023-02-15T15:07:28;25.75;;;16.20;;
9821;SDS011;4950;46.042;14.472;2023-02-15T15:10:06;26.73;;;15.20;;
9821;SDS011;4950;46.042;14.472;2023-02-15T15:12:54;30.10;;;17.70;;
9821;SDS011;4950;46.042;14.472;2023-02-15T15:15:32;23.55;;;15.38;;
9821;SDS011;4950;46.042;14.472;2023-02-15T15:18:00;26.15;;;15.90;;
9821;SDS011;4950;46.042;14.472;2023-02-15T15:20:38;25.23;;;15.05;;
9821;SDS011;4950;46.042;14.472;2023-02-15T15:29:04;24.45;;;15.23;;
9821;SDS011;4950;46.042;14.472;2023-02-15T15:31:43;29.95;;;14.95;;
9821;SDS011;4950;46.042;14.472;2023-02-15T15:34:27;28.33;;;15.52;;